Time;durP1;ratioP1;P1;durP2;ratioP2;P2;SDS_P1;SDS_P2;PMS_P1;PMS_P2;Temp;Humidity;BMP_temperature;BMP_pressure;BME280_temperature;BME280_humidity;BME280_pressure;Samples;Min_cycle;Max_cycle;Signal;HPM_P1;HPM_P2
2022/07/15 00:00:16;;;;;;;0.80;0.80;;;20.10;99.90;;;;;;5254642;28;20017;-61
2022/07/15 00:02:47;;;;;;;1.20;1.10;;;20.10;99.90;;;;;;5249090;28;20043;-61
2022/07/15 00:05:20;;;;;;;1.13;1.05;;;20.10;99.90;;;;;;5250088;28;20066;-60
2022/07/15 00:07:51;;;;;;;1.27;1.10;;;20.10;99.90;;;;;;5260577;28;20039;-60
2022/07/15 00:10:25;;;;;;;1.00;1.00;;;20.10;99.90;;;;;;5242890;28;20044;-62
2022/07/15 00:13:03;;;;;;;1.45;1.20;;;20.00;99.90;;;;;;5243182;28;20028;-61
2022/07/15 00:15:34;;;;;;;1.27;1.15;;;19.80;99.90;;;;;;5260831;28;20037;-61
2022/07/15 00:18:08;;;;;;;1.38;1.27;;;19.70;99.90;;;;;;5259626;28;20036;-60
2022/07/15 00:20:40;;;;;;;1.52;1.13;;;19.60;99.90;;;;;;5223179;28;20210;-60
2022/07/15 00:23:11;;;;;;;0.82;0.82;;;19.60;99.90;;;;;;5239178;28;20298;-60
2022/07/15 00:25:43;;;;;;;1.38;1.27;;;19.60;99.90;;;;;;5221291;28;20206;-60
2022/07/15 00:28:16;;;;;;;1.50;1.27;;;19.60;99.90;;;;;;5226538;28;20032;-60
2022/07/15 00:30:50;;;;;;;1.30;1.08;;;19.70;99.90;;;;;;5242751;28;20201;-61
2022/07/15 00:33:27;;;;;;;3.65;1.20;;;19.70;99.90;;;;;;5261529;28;20043;-60
2022/07/15 00:36:01;;;;;;;1.25;1.10;;;19.70;99.90;;;;;;5242570;28;20034;-60
2022/07/15 00:38:34;;;;;;;1.42;1.00;;;19.80;99.90;;;;;;5243699;28;20310;-60
2022/07/15 00:41:06;;;;;;;1.30;1.20;;;19.90;99.90;;;;;;5261041;28;20032;-60
2022/07/15 00:43:40;;;;;;;1.10;1.10;;;20.00;99.90;;;;;;5242303;28;20036;-66
2022/07/15 00:46:24;;;;;;;1.30;1.13;;;19.70;99.90;;;;;;5260017;28;20314;-66
2022/07/15 00:48:57;;;;;;;1.50;1.40;;;19.30;99.90;;;;;;5242314;28;20032;-71
2022/07/15 00:51:54;;;;;;;1.60;1.50;;;19.00;99.90;;;;;;5241931;28;20033;-71
2022/07/15 00:54:30;;;;;;;3.75;1.58;;;18.70;99.90;;;;;;5261316;28;20066;-74
2022/07/15 00:57:06;;;;;;;1.38;1.27;;;18.60;99.90;;;;;;5261314;28;20036;-69
2022/07/15 00:59:38;;;;;;;1.50;1.38;;;18.40;99.90;;;;;;5260773;28;20035;-69
2022/07/15 01:02:19;;;;;;;1.83;1.70;;;18.30;99.90;;;;;;5259254;28;20028;-70
2022/07/15 01:05:46;;;;;;;1.50;1.40;;;18.20;99.90;;;;;;5248743;28;20052;-70
2022/07/15 01:08:18;;;;;;;3.00;1.65;;;18.00;99.90;;;;;;5225707;28;20028;-72
2022/07/15 01:10:51;;;;;;;4.25;1.52;;;17.90;99.90;;;;;;5241874;28;20036;-72
2022/07/15 01:13:22;;;;;;;1.60;1.50;;;17.80;99.90;;;;;;5258172;28;20042;-71
2022/07/15 01:15:56;;;;;;;1.80;1.70;;;17.80;99.90;;;;;;5259973;28;20198;-65
2022/07/15 01:18:29;;;;;;;1.85;1.73;;;17.70;99.90;;;;;;5241392;28;20044;-70
2022/07/15 01:21:03;;;;;;;1.80;1.70;;;17.70;99.90;;;;;;5224397;28;20032;-69
2022/07/15 01:23:36;;;;;;;1.90;1.77;;;17.70;99.90;;;;;;5241576;28;20334;-70
2022/07/15 01:26:07;;;;;;;2.42;1.92;;;17.70;99.90;;;;;;5208245;28;20036;-68
2022/07/15 01:28:42;;;;;;;2.25;1.90;;;17.70;99.90;;;;;;5260159;28;20031;-69
2022/07/15 01:31:16;;;;;;;2.17;1.70;;;17.70;99.90;;;;;;5242307;28;20031;-69
2022/07/15 01:33:52;;;;;;;2.40;2.20;;;17.60;99.90;;;;;;5225561;28;20029;-68
2022/07/15 01:39:51;;;;;;;2.03;1.67;;;17.70;99.90;;;;;;5242465;28;20028;-67
2022/07/15 01:42:24;;;;;;;2.58;1.70;;;17.80;99.90;;;;;;5242047;28;20036;-69
2022/07/15 01:44:56;;;;;;;2.28;2.00;;;17.90;99.90;;;;;;5241738;28;20042;-74
2022/07/15 01:47:27;;;;;;;2.67;2.10;;;17.90;99.90;;;;;;5260057;28;20039;-74
2022/07/15 01:50:02;;;;;;;2.45;2.25;;;17.90;99.90;;;;;;5259947;28;20320;-73
2022/07/15 01:56:03;;;;;;;2.40;2.20;;;17.80;99.90;;;;;;5257737;28;20023;-74
2022/07/15 01:58:35;;;;;;;4.35;2.03;;;17.80;99.90;;;;;;5259331;28;20033;-71
2022/07/15 02:01:07;;;;;;;2.40;2.20;;;17.80;99.90;;;;;;5279764;28;20032;-70
2022/07/15 02:03:41;;;;;;;2.38;2.13;;;17.80;99.90;;;;;;5280249;28;20034;-70
2022/07/15 02:06:15;;;;;;;2.03;1.93;;;17.80;99.90;;;;;;5280673;28;20019;-69
2022/07/15 02:08:48;;;;;;;2.30;2.10;;;17.70;99.90;;;;;;5263431;28;20402;-64
2022/07/15 02:11:22;;;;;;;2.95;1.98;;;17.60;99.90;;;;;;5262962;28;20268;-69
2022/07/15 02:13:57;;;;;;;2.25;2.03;;;17.60;99.90;;;;;;5260394;28;20039;-69
2022/07/15 02:16:30;;;;;;;2.80;2.30;;;17.50;99.90;;;;;;5280237;28;20205;-70
2022/07/15 02:19:04;;;;;;;2.78;2.40;;;17.40;99.90;;;;;;5260959;28;20195;-67
2022/07/15 02:21:36;;;;;;;2.80;2.40;;;17.20;99.90;;;;;;5243729;28;20032;-62
2022/07/15 02:24:10;;;;;;;4.95;2.70;;;17.00;99.90;;;;;;5257264;28;20025;-67
2022/07/15 02:30:09;;;;;;;5.25;3.17;;;16.50;99.90;;;;;;5240028;28;20025;-66
2022/07/15 02:32:40;;;;;;;2.90;2.67;;;16.40;99.90;;;;;;5240663;28;20032;-69
2022/07/15 02:38:42;;;;;;;3.13;2.75;;;16.20;99.90;;;;;;5260221;28;20039;-70
2022/07/15 02:41:13;;;;;;;;;;;16.20;99.90;;;;;;5259368;28;20032;-67
2022/07/15 02:43:49;;;;;;;4.05;2.50;;;16.10;99.90;;;;;;5259475;28;19901;-70
2022/07/15 02:47:01;;;;;;;4.57;3.13;;;16.10;99.90;;;;;;5241216;28;20028;-70
2022/07/15 02:49:32;;;;;;;4.25;3.00;;;16.10;99.90;;;;;;5240639;28;20028;-70
2022/07/15 02:52:06;;;;;;;6.25;3.45;;;16.10;99.90;;;;;;5256014;28;20042;-71
2022/07/15 02:54:40;;;;;;;5.38;3.50;;;16.10;99.90;;;;;;5239634;28;20058;-69
2022/07/15 02:57:11;;;;;;;3.27;2.97;;;16.10;99.90;;;;;;5225441;28;20050;-71
2022/07/15 02:59:45;;;;;;;4.40;3.28;;;16.10;99.90;;;;;;5242133;28;20249;-70
2022/07/15 03:02:16;;;;;;;5.63;3.40;;;16.10;99.90;;;;;;5225852;28;20329;-72
2022/07/15 03:04:53;;;;;;;7.30;3.20;;;16.10;99.90;;;;;;5224941;28;20192;-70
2022/07/15 03:07:30;;;;;;;3.97;3.20;;;16.10;99.90;;;;;;5228677;28;20036;-69
2022/07/15 03:10:03;;;;;;;3.90;3.10;;;16.10;99.90;;;;;;5240384;28;20040;-69
2022/07/15 03:12:39;;;;;;;6.10;3.78;;;16.10;99.90;;;;;;5224739;28;20042;-63
2022/07/15 03:15:15;;;;;;;3.13;2.83;;;16.10;99.90;;;;;;5221430;28;20240;-70
2022/07/15 03:17:47;;;;;;;4.07;2.80;;;16.20;99.90;;;;;;5239532;28;20036;-66
2022/07/15 03:20:18;;;;;;;5.90;4.15;;;16.20;99.90;;;;;;5240138;28;20031;-69
2022/07/15 03:22:57;;;;;;;4.95;3.42;;;16.20;99.90;;;;;;5255799;28;20026;-67
2022/07/15 03:26:12;;;;;;;6.82;3.20;;;16.20;99.90;;;;;;5258618;28;20042;-66
2022/07/15 03:28:44;;;;;;;3.53;3.22;;;16.20;99.90;;;;;;5258752;28;20021;-67
2022/07/15 03:31:17;;;;;;;5.28;3.53;;;16.30;99.90;;;;;;5256951;28;20032;-66
2022/07/15 03:33:48;;;;;;;5.47;3.13;;;16.30;99.90;;;;;;5258153;28;20202;-66
2022/07/15 03:36:21;;;;;;;4.95;3.72;;;16.40;99.90;;;;;;5257409;28;20035;-63
2022/07/15 03:38:52;;;;;;;3.95;3.47;;;16.50;99.90;;;;;;5241859;28;20210;-65
2022/07/15 03:41:24;;;;;;;4.90;3.10;;;16.60;99.90;;;;;;5259179;28;20210;-65
2022/07/15 03:43:56;;;;;;;4.20;3.22;;;16.60;99.90;;;;;;5224215;28;20038;-64
2022/07/15 03:46:33;;;;;;;2.92;2.70;;;16.70;99.90;;;;;;5260715;28;20017;-64
2022/07/15 03:49:04;;;;;;;6.38;2.90;;;16.70;99.90;;;;;;5244122;28;20055;-64
2022/07/15 03:51:40;;;;;;;4.18;3.08;;;16.70;99.90;;;;;;5246393;28;20039;-64
2022/07/15 03:54:16;;;;;;;3.92;3.60;;;16.70;99.90;;;;;;5263578;28;20031;-64
2022/07/15 03:56:47;;;;;;;3.35;2.70;;;16.70;99.90;;;;;;5227340;28;20027;-63
2022/07/15 03:59:20;;;;;;;3.85;2.78;;;16.80;99.90;;;;;;5226925;28;20033;-63
2022/07/15 04:01:52;;;;;;;4.68;3.20;;;16.80;99.90;;;;;;5243005;28;20324;-63
2022/07/15 04:04:26;;;;;;;3.97;2.92;;;16.90;99.90;;;;;;5230741;28;20031;-63
2022/07/15 04:06:57;;;;;;;3.60;2.97;;;16.90;99.90;;;;;;5243807;28;20028;-63
2022/07/15 04:09:31;;;;;;;5.18;3.70;;;17.00;99.90;;;;;;5243935;28;20024;-63
2022/07/15 04:12:05;;;;;;;4.03;2.90;;;17.00;99.90;;;;;;5244328;28;20319;-63
2022/07/15 04:14:39;;;;;;;6.70;3.53;;;17.00;99.90;;;;;;5227989;28;20265;-63
2022/07/15 04:17:13;;;;;;;4.57;3.03;;;17.00;99.90;;;;;;5225477;28;20037;-63
2022/07/15 04:19:46;;;;;;;;;;;17.10;99.90;;;;;;5227435;28;20036;-63
2022/07/15 04:22:20;;;;;;;3.88;3.30;;;17.00;99.90;;;;;;5242343;28;19922;-62
2022/07/15 04:24:53;;;;;;;4.68;3.30;;;17.00;99.90;;;;;;5225978;28;20032;-62
2022/07/15 04:27:24;;;;;;;7.95;3.38;;;17.00;99.90;;;;;;5259825;28;20039;-63
2022/07/15 04:30:02;;;;;;;5.20;3.35;;;17.00;99.90;;;;;;5260426;28;20051;-63
2022/07/15 04:32:36;;;;;;;2.90;2.60;;;17.00;99.90;;;;;;5226591;28;20029;-62
2022/07/15 04:38:58;;;;;;;3.28;2.97;;;17.10;99.90;;;;;;5176372;28;20331;-62
2022/07/15 04:41:33;;;;;;;5.47;3.38;;;17.20;99.90;;;;;;5177871;28;20027;-62
2022/07/15 04:44:09;;;;;;;5.53;3.42;;;17.30;99.90;;;;;;5161880;28;20034;-62
2022/07/15 04:46:44;;;;;;;4.18;2.90;;;17.40;99.90;;;;;;5176606;28;20037;-62
2022/07/15 04:52:07;;;;;;;4.35;3.95;;;17.50;99.90;;;;;;5177565;28;20034;-62
2022/07/15 04:54:38;;;;;;;3.95;3.25;;;17.70;99.90;;;;;;5176698;28;20216;-63
2022/07/15 04:57:11;;;;;;;5.53;3.13;;;17.80;99.90;;;;;;5177312;28;20400;-63
2022/07/15 04:59:43;;;;;;;3.58;2.83;;;18.00;99.90;;;;;;5177265;28;20231;-63
2022/07/15 05:02:20;;;;;;;3.05;2.75;;;18.00;99.90;;;;;;5176831;28;20032;-63
2022/07/15 05:04:57;;;;;;;3.72;3.25;;;18.10;99.90;;;;;;5166501;28;20052;-63
2022/07/15 05:07:28;;;;;;;4.00;3.03;;;18.10;99.90;;;;;;5175879;28;20045;-62
2022/07/15 05:10:03;;;;;;;5.10;3.70;;;18.20;99.90;;;;;;5140323;28;20228;-63
2022/07/15 05:12:34;;;;;;;5.10;3.70;;;18.10;99.90;;;;;;5188337;28;20028;-63
2022/07/15 05:18:33;;;;;;;3.63;3.10;;;17.80;99.90;;;;;;5220673;28;20041;-65
2022/07/15 05:21:07;;;;;;;3.80;3.25;;;17.80;99.90;;;;;;5214070;28;20340;-62
2022/07/15 05:23:40;;;;;;;4.63;3.17;;;17.70;99.90;;;;;;5251676;28;20015;-62
2022/07/15 05:26:11;;;;;;;4.50;3.08;;;17.70;99.90;;;;;;5206503;28;20033;-62
2022/07/15 05:28:42;;;;;;;6.93;3.08;;;17.60;99.90;;;;;;5241000;28;20031;-64
2022/07/15 05:31:15;;;;;;;5.40;3.65;;;17.50;99.90;;;;;;5233626;28;20025;-64
2022/07/15 05:33:49;;;;;;;4.88;3.22;;;17.50;99.90;;;;;;5222648;28;20025;-63
2022/07/15 05:36:23;;;;;;;4.05;3.22;;;17.40;99.90;;;;;;5218794;28;20025;-64
2022/07/15 05:38:54;;;;;;;4.90;3.50;;;17.70;99.90;;;;;;5200728;28;20044;-63
2022/07/15 05:41:25;;;;;;;3.97;3.58;;;17.90;99.90;;;;;;5179040;28;20025;-61
2022/07/15 05:43:59;;;;;;;3.90;3.10;;;18.00;99.90;;;;;;5196753;28;20032;-61
2022/07/15 05:46:31;;;;;;;3.70;2.80;;;18.10;99.90;;;;;;5217840;28;20040;-62
2022/07/15 05:49:05;;;;;;;3.80;3.40;;;18.30;99.90;;;;;;5223022;28;20031;-62
2022/07/15 05:51:37;;;;;;;3.50;2.88;;;18.50;99.90;;;;;;5168186;28;20037;-64
2022/07/15 05:54:08;;;;;;;4.13;2.40;;;18.80;99.90;;;;;;5217647;28;20023;-62
2022/07/15 05:56:42;;;;;;;3.67;2.70;;;18.70;99.90;;;;;;5219901;28;20020;-63
2022/07/15 05:59:21;;;;;;;3.53;2.17;;;18.50;99.90;;;;;;5214273;28;20024;-62
2022/07/15 06:01:57;;;;;;;3.85;2.25;;;18.50;99.90;;;;;;5215907;28;20025;-62
2022/07/15 06:04:33;;;;;;;2.88;2.30;;;18.40;99.90;;;;;;5199866;28;20025;-62
2022/07/15 06:07:07;;;;;;;3.78;2.50;;;18.30;99.90;;;;;;5202845;28;20021;-62
2022/07/15 06:09:41;;;;;;;5.55;2.50;;;18.30;99.90;;;;;;5206732;28;20023;-62
2022/07/15 06:12:15;;;;;;;2.13;1.92;;;18.30;99.90;;;;;;5209885;28;20024;-61
2022/07/15 06:14:46;;;;;;;7.15;2.83;;;18.10;99.90;;;;;;5219233;28;20016;-64
2022/07/15 06:17:17;;;;;;;2.50;2.10;;;18.10;99.90;;;;;;5242101;28;20131;-62
2022/07/15 06:19:49;;;;;;;2.63;2.42;;;18.00;99.90;;;;;;5222772;28;20347;-63
2022/07/15 06:22:23;;;;;;;2.10;1.90;;;18.00;99.90;;;;;;5233158;28;20549;-62
2022/07/15 06:24:56;;;;;;;2.45;2.25;;;18.10;99.90;;;;;;5232979;28;20020;-62
2022/07/15 06:27:30;;;;;;;3.17;1.95;;;18.10;99.90;;;;;;5200615;28;20179;-62
2022/07/15 06:30:03;;;;;;;2.28;1.60;;;18.10;99.90;;;;;;5231269;28;20222;-62
2022/07/15 06:32:37;;;;;;;2.00;1.80;;;18.10;99.90;;;;;;5237460;28;20032;-62
2022/07/15 06:35:09;;;;;;;1.63;1.52;;;18.10;99.90;;;;;;5239882;28;20220;-63
2022/07/15 06:37:43;;;;;;;3.42;2.38;;;18.20;99.90;;;;;;5236481;28;20043;-62
2022/07/15 06:40:16;;;;;;;2.40;2.20;;;18.20;99.90;;;;;;5227911;28;20036;-64
2022/07/15 06:42:50;;;;;;;2.27;1.90;;;18.10;99.90;;;;;;5239212;28;20017;-62
2022/07/15 06:45:21;;;;;;;2.47;2.00;;;18.10;99.90;;;;;;5234016;28;20104;-62
2022/07/15 06:47:52;;;;;;;2.50;1.90;;;18.30;99.90;;;;;;5219403;28;20034;-62
2022/07/15 06:50:30;;;;;;;5.93;2.13;;;18.40;99.90;;;;;;5219122;28;20020;-62
2022/07/15 06:53:05;;;;;;;2.25;1.70;;;18.50;99.90;;;;;;5227900;28;20043;-61
2022/07/15 06:55:36;;;;;;;3.53;1.70;;;18.60;99.90;;;;;;5236568;28;20055;-61
2022/07/15 06:58:08;;;;;;;1.58;1.48;;;18.80;99.90;;;;;;5221306;28;20025;-63
2022/07/15 07:00:41;;;;;;;3.28;1.65;;;19.00;99.90;;;;;;5235265;28;20024;-62
2022/07/15 07:03:12;;;;;;;5.90;2.47;;;19.10;99.90;;;;;;5232065;28;20023;-62
2022/07/15 07:05:49;;;;;;;3.80;1.65;;;19.10;99.90;;;;;;5226652;28;20047;-64
2022/07/15 07:08:20;;;;;;;2.10;1.60;;;19.30;99.90;;;;;;5235826;28;20028;-62
2022/07/15 07:10:53;;;;;;;3.22;1.73;;;19.30;99.90;;;;;;5236586;28;20318;-64
2022/07/15 07:13:29;;;;;;;3.05;1.50;;;19.50;99.90;;;;;;5237643;28;20030;-62
2022/07/15 07:16:01;;;;;;;2.03;1.70;;;19.50;99.90;;;;;;5219298;28;20021;-62
2022/07/15 07:18:33;;;;;;;2.78;1.38;;;19.80;99.90;;;;;;5199874;28;20044;-62
2022/07/15 07:21:07;;;;;;;2.45;1.40;;;19.60;99.90;;;;;;5242416;28;20206;-62
2022/07/15 07:23:39;;;;;;;1.55;1.30;;;19.50;99.90;;;;;;5239553;28;20024;-62
2022/07/15 07:26:14;;;;;;;4.28;1.63;;;19.60;99.90;;;;;;5242150;28;20130;-62
2022/07/15 07:28:48;;;;;;;2.80;1.52;;;19.60;99.90;;;;;;5237419;28;20025;-61
2022/07/15 07:31:25;;;;;;;2.45;1.25;;;19.70;99.90;;;;;;5218906;28;20031;-62
2022/07/15 07:33:57;;;;;;;4.15;1.40;;;19.70;99.90;;;;;;5239773;28;20025;-61
2022/07/15 07:36:35;;;;;;;1.60;1.50;;;19.90;99.90;;;;;;5238106;28;20032;-63
2022/07/15 07:39:07;;;;;;;1.90;1.20;;;20.00;99.90;;;;;;5258499;28;20035;-62
2022/07/15 07:41:41;;;;;;;1.20;1.15;;;20.10;99.90;;;;;;5245698;28;20294;-63
2022/07/15 07:44:12;;;;;;;2.20;1.60;;;20.50;99.90;;;;;;5244244;28;20032;-62
2022/07/15 07:46:44;;;;;;;3.75;1.00;;;20.50;99.90;;;;;;5257950;28;20028;-63
2022/07/15 07:49:21;;;;;;;1.10;1.00;;;20.60;99.90;;;;;;5239721;28;20340;-62
2022/07/15 07:51:52;;;;;;;1.45;1.35;;;21.10;99.90;;;;;;5248100;28;20034;-62
2022/07/15 07:54:26;;;;;;;5.10;1.63;;;21.10;99.90;;;;;;5280081;28;20020;-62
2022/07/15 07:57:05;;;;;;;1.00;1.00;;;21.20;99.90;;;;;;5276224;28;20034;-63
2022/07/15 07:59:43;;;;;;;2.42;1.30;;;21.00;99.90;;;;;;5276184;28;20031;-61
2022/07/15 08:02:14;;;;;;;1.40;1.10;;;21.00;99.90;;;;;;5254094;28;20028;-62
2022/07/15 08:04:49;;;;;;;3.10;1.33;;;20.90;99.90;;;;;;5233898;28;20052;-62
2022/07/15 08:07:22;;;;;;;1.80;1.00;;;20.50;99.90;;;;;;5250265;28;20035;-62
2022/07/15 08:09:54;;;;;;;2.03;1.10;;;20.50;99.90;;;;;;5244861;28;20028;-62
2022/07/15 08:12:28;;;;;;;7.22;1.92;;;20.60;99.90;;;;;;5244217;28;20028;-62
2022/07/15 08:15:00;;;;;;;1.80;1.15;;;20.70;99.90;;;;;;5232278;28;20064;-62
2022/07/15 08:17:33;;;;;;;1.27;1.17;;;21.00;99.90;;;;;;5229274;28;20031;-62
2022/07/15 08:20:10;;;;;;;3.63;1.83;;;21.00;99.90;;;;;;5243839;28;20049;-61
2022/07/15 08:22:44;;;;;;;2.55;1.20;;;21.20;99.90;;;;;;5231649;28;20031;-62
2022/07/15 08:25:20;;;;;;;0.80;0.80;;;21.30;99.90;;;;;;5193257;28;20025;-62
2022/07/15 08:27:54;;;;;;;2.92;1.40;;;21.50;99.90;;;;;;5237244;28;20314;-62
2022/07/15 08:30:33;;;;;;;1.20;0.80;;;21.80;99.90;;;;;;5229625;28;20029;-62
2022/07/15 08:33:07;;;;;;;1.00;0.90;;;22.10;99.90;;;;;;5232754;28;20012;-63
2022/07/15 08:35:40;;;;;;;0.95;0.90;;;21.70;99.90;;;;;;5218320;28;20332;-62
2022/07/15 08:38:16;;;;;;;1.40;1.15;;;21.70;99.90;;;;;;5239608;28;20025;-63
2022/07/15 08:40:48;;;;;;;2.20;1.20;;;21.70;99.90;;;;;;5246453;28;20023;-62
2022/07/15 08:43:20;;;;;;;4.05;1.27;;;21.70;99.90;;;;;;5229428;28;20025;-62
2022/07/15 08:45:52;;;;;;;5.35;1.70;;;21.80;99.90;;;;;;5228438;28;20032;-62
2022/07/15 08:48:31;;;;;;;1.15;1.05;;;21.50;99.90;;;;;;5227296;28;20029;-62
2022/07/15 08:51:05;;;;;;;1.23;1.02;;;21.60;99.90;;;;;;5232033;28;20021;-62
2022/07/15 08:53:40;;;;;;;1.02;0.98;;;21.90;99.90;;;;;;5223185;28;20048;-61
2022/07/15 08:56:11;;;;;;;6.43;1.30;;;21.90;99.90;;;;;;5222335;28;20329;-62
2022/07/15 08:58:46;;;;;;;1.60;1.20;;;22.10;99.90;;;;;;5221430;28;20033;-62
2022/07/15 09:01:18;;;;;;;;;;;21.80;99.90;;;;;;5227706;28;20024;-62
2022/07/15 09:03:52;;;;;;;1.88;1.58;;;21.90;99.90;;;;;;5253012;28;19905;-62
2022/07/15 09:06:40;;;;;;;1.27;0.98;;;21.80;99.90;;;;;;5207280;28;20048;-62
2022/07/15 09:09:25;;;;;;;1.98;1.02;;;21.90;99.90;;;;;;5231158;28;20029;-62
2022/07/15 09:12:07;;;;;;;1.52;1.00;;;22.10;99.90;;;;;;5220341;28;20037;-61
2022/07/15 09:14:42;;;;;;;2.35;1.27;;;22.40;99.90;;;;;;5233878;28;20028;-61
2022/07/15 09:17:15;;;;;;;1.27;1.05;;;22.40;99.90;;;;;;5279860;28;20032;-61
2022/07/15 09:20:11;;;;;;;1.17;0.90;;;22.40;99.90;;;;;;5244795;28;20173;-61
2022/07/15 09:22:56;;;;;;;1.52;0.93;;;22.50;99.90;;;;;;5237161;28;20039;-61
2022/07/15 09:25:28;;;;;;;0.85;0.85;;;22.10;99.90;;;;;;5260587;28;20087;-60
2022/07/15 09:28:02;;;;;;;1.20;0.93;;;22.70;99.90;;;;;;5243298;28;20037;-60
2022/07/15 09:36:15;;;;;;;2.40;1.05;;;23.30;99.90;;;;;;5246343;28;20046;-61
2022/07/15 09:38:50;;;;;;;4.00;1.05;;;23.00;99.90;;;;;;5221108;28;20253;-62
2022/07/15 09:41:41;;;;;;;1.70;0.90;;;22.90;99.90;;;;;;5249957;28;20027;-61
2022/07/15 09:44:21;;;;;;;1.52;0.95;;;23.10;99.90;;;;;;5239868;28;20303;-62
2022/07/15 09:47:01;;;;;;;0.73;0.70;;;23.40;99.90;;;;;;5256752;28;20034;-62
2022/07/15 09:49:38;;;;;;;1.77;0.82;;;23.40;99.90;;;;;;5230601;28;20016;-62
2022/07/15 09:52:11;;;;;;;1.70;1.10;;;23.20;99.90;;;;;;5231445;28;20195;-62
2022/07/15 09:54:46;;;;;;;1.63;0.90;;;23.00;99.90;;;;;;5232202;28;20017;-62
2022/07/15 09:57:18;;;;;;;0.80;0.80;;;23.70;99.90;;;;;;5230739;28;20020;-61
2022/07/15 09:59:51;;;;;;;1.45;1.33;;;23.90;99.90;;;;;;5234769;28;20019;-62
2022/07/15 10:02:23;;;;;;;1.08;1.00;;;23.60;99.90;;;;;;5237116;28;20039;-62
2022/07/15 10:04:57;;;;;;;1.10;0.75;;;23.80;99.90;;;;;;5225145;28;20051;-62
2022/07/15 10:07:32;;;;;;;1.05;1.05;;;24.70;99.90;;;;;;5237704;28;20229;-62
2022/07/15 10:10:04;;;;;;;0.95;0.90;;;24.10;99.90;;;;;;5225031;28;20236;-61
2022/07/15 10:13:26;;;;;;;0.73;0.73;;;23.40;99.90;;;;;;5210160;28;20027;-62
2022/07/15 10:16:16;;;;;;;1.98;1.10;;;23.90;99.90;;;;;;5225922;28;20092;-61
2022/07/15 10:19:10;;;;;;;1.63;1.30;;;23.80;99.90;;;;;;5245979;28;20040;-61
2022/07/15 10:21:55;;;;;;;3.33;1.30;;;23.70;99.90;;;;;;5250016;28;20329;-62
2022/07/15 10:31:24;;;;;;;1.63;1.35;;;23.90;99.90;;;;;;5257713;28;20027;-62
2022/07/15 10:34:02;;;;;;;1.10;1.00;;;24.50;99.90;;;;;;5246907;28;20034;-62
2022/07/15 10:37:01;;;;;;;2.20;0.95;;;24.00;99.90;;;;;;5257821;28;20027;-62
2022/07/15 10:40:08;;;;;;;2.28;1.20;;;24.50;99.90;;;;;;5237355;28;20402;-61
2022/07/15 10:43:01;;;;;;;2.05;1.17;;;24.20;99.90;;;;;;5177187;28;20034;-62
2022/07/15 10:45:35;;;;;;;1.83;1.40;;;24.70;99.90;;;;;;5235044;28;20054;-61
2022/07/15 10:48:26;;;;;;;1.45;0.80;;;24.10;99.90;;;;;;5214055;28;20032;-60
2022/07/15 10:51:00;;;;;;;1.35;1.20;;;24.70;99.90;;;;;;5246134;28;20375;-60
2022/07/15 10:53:45;;;;;;;1.65;1.30;;;24.10;99.90;;;;;;5231470;28;20334;-60
2022/07/15 10:56:34;;;;;;;2.63;1.45;;;24.30;99.90;;;;;;5244414;28;20028;-61
2022/07/15 10:59:19;;;;;;;1.23;1.13;;;24.30;99.90;;;;;;5263569;28;20025;-60
2022/07/15 11:02:12;;;;;;;;;;;23.40;99.90;;;;;;5240368;28;20032;-61
2022/07/15 11:04:46;;;;;;;1.40;1.30;;;23.20;99.90;;;;;;5214362;28;20221;-60
2022/07/15 11:07:24;;;;;;;;;;;24.10;99.90;;;;;;5262256;28;20091;-61
2022/07/15 11:10:07;;;;;;;1.88;1.20;;;25.00;99.90;;;;;;5252538;28;20121;-61
2022/07/15 11:12:50;;;;;;;3.53;1.50;;;25.40;99.90;;;;;;5258842;28;20309;-62
2022/07/15 11:15:27;;;;;;;1.45;1.02;;;26.60;99.90;;;;;;5263165;28;20017;-62
2022/07/15 11:18:02;;;;;;;1.45;1.17;;;27.60;99.90;;;;;;5262539;28;20025;-62
2022/07/15 11:20:35;;;;;;;1.35;1.25;;;26.50;99.90;;;;;;5262564;28;20315;-62
2022/07/15 11:23:44;;;;;;;1.05;0.95;;;27.30;99.90;;;;;;5244492;28;20088;-61
2022/07/15 11:26:17;;;;;;;1.90;1.10;;;28.00;99.90;;;;;;5234622;28;20209;-62
2022/07/15 11:28:59;;;;;;;1.90;1.27;;;28.40;99.90;;;;;;5241766;28;20032;-61
2022/07/15 11:31:45;;;;;;;4.47;1.20;;;28.00;99.90;;;;;;5226754;28;20138;-61
2022/07/15 11:34:17;;;;;;;1.92;1.75;;;27.30;99.90;;;;;;5262178;28;20197;-61
2022/07/15 11:37:01;;;;;;;1.25;0.90;;;26.40;99.90;;;;;;5232459;28;20108;-62
2022/07/15 11:39:33;;;;;;;2.72;1.27;;;27.80;99.90;;;;;;5251536;28;20227;-61
2022/07/15 11:44:56;;;;;;;3.53;1.20;;;28.60;99.90;;;;;;5236356;28;20202;-61
2022/07/15 11:47:33;;;;;;;1.42;1.30;;;28.90;99.90;;;;;;5201243;28;20322;-62
2022/07/15 11:50:08;;;;;;;3.25;1.20;;;28.70;99.90;;;;;;5241015;28;20024;-62
2022/07/15 11:52:42;;;;;;;1.30;1.13;;;28.00;99.90;;;;;;5243632;28;20029;-62
2022/07/15 11:55:13;;;;;;;4.45;1.38;;;28.10;99.90;;;;;;5233262;28;20330;-62
2022/07/15 11:57:51;;;;;;;1.58;1.08;;;28.10;99.90;;;;;;5241450;28;20047;-63
2022/07/15 12:00:29;;;;;;;2.45;1.23;;;28.30;99.90;;;;;;5246161;28;20036;-62
2022/07/15 12:03:13;;;;;;;1.55;1.25;;;27.70;99.90;;;;;;5260940;28;20043;-61
2022/07/15 12:05:59;;;;;;;2.37;1.40;;;27.40;99.90;;;;;;5218408;28;20364;-62
2022/07/15 12:08:55;;;;;;;1.10;1.00;;;27.50;99.90;;;;;;5224809;28;20036;-62
2022/07/15 12:11:32;;;;;;;1.73;1.50;;;27.50;99.90;;;;;;5243759;28;20047;-62
2022/07/15 12:14:04;;;;;;;1.23;1.13;;;28.80;99.90;;;;;;5259333;28;20037;-61
2022/07/15 12:16:39;;;;;;;2.03;1.33;;;30.80;99.90;;;;;;5228505;28;20044;-61
2022/07/15 12:19:30;;;;;;;;;;;29.50;99.90;;;;;;5238587;28;20233;-61
2022/07/15 12:22:06;;;;;;;1.65;1.27;;;30.50;99.90;;;;;;5235818;28;19914;-61
2022/07/15 12:24:43;;;;;;;2.15;1.27;;;30.40;99.90;;;;;;5234356;28;20037;-62
2022/07/15 12:27:15;;;;;;;2.08;1.30;;;28.40;99.90;;;;;;5252164;28;20020;-61
2022/07/15 12:29:47;;;;;;;1.10;1.00;;;28.10;99.90;;;;;;5253021;28;20008;-62
2022/07/15 12:32:18;;;;;;;2.08;1.40;;;28.40;99.90;;;;;;5250472;28;20023;-62
2022/07/15 12:34:54;;;;;;;1.70;1.10;;;28.60;99.90;;;;;;5218524;28;20042;-62
2022/07/15 12:37:49;;;;;;;0.95;0.95;;;29.20;99.90;;;;;;5239767;28;20012;-62
2022/07/15 12:40:23;;;;;;;1.35;0.95;;;28.90;99.90;;;;;;5244506;28;20024;-62
2022/07/15 12:42:54;;;;;;;4.88;1.35;;;29.90;99.90;;;;;;5242726;28;20035;-62
2022/07/15 12:45:38;;;;;;;1.48;1.25;;;30.80;99.90;;;;;;5228439;28;20314;-62
2022/07/15 12:48:14;;;;;;;4.38;1.40;;;27.90;99.90;;;;;;5239564;28;20020;-61
2022/07/15 12:50:50;;;;;;;1.95;1.08;;;28.20;99.90;;;;;;5245130;28;20286;-62
2022/07/15 12:53:24;;;;;;;1.20;1.08;;;29.10;99.90;;;;;;5229471;28;20474;-62
2022/07/15 12:55:59;;;;;;;1.17;1.05;;;31.20;99.90;;;;;;5239189;28;20028;-62
2022/07/15 12:58:37;;;;;;;1.35;1.00;;;30.20;99.90;;;;;;5223466;28;20031;-61
2022/07/15 13:01:14;;;;;;;1.77;1.10;;;28.70;99.90;;;;;;5242277;28;20046;-61
2022/07/15 13:03:46;;;;;;;1.05;1.05;;;28.60;99.90;;;;;;5255089;28;20200;-60
2022/07/15 13:06:18;;;;;;;1.90;1.00;;;27.20;99.90;;;;;;5230969;28;20372;-61
2022/07/15 13:08:50;;;;;;;1.10;1.00;;;27.30;99.90;;;;;;5235702;28;20040;-61
2022/07/15 13:11:26;;;;;;;1.25;1.15;;;26.70;99.90;;;;;;5238399;28;20035;-61
2022/07/15 13:13:59;;;;;;;1.23;1.10;;;26.30;99.90;;;;;;5217351;28;20242;-61
2022/07/15 13:16:30;;;;;;;1.08;1.00;;;26.00;99.90;;;;;;5240731;28;20217;-63
2022/07/15 13:19:06;;;;;;;0.98;0.90;;;26.00;99.90;;;;;;5246240;28;20030;-60
2022/07/15 13:21:39;;;;;;;1.95;1.73;;;26.50;99.90;;;;;;5224352;28;20038;-60
2022/07/15 13:24:12;;;;;;;1.42;1.10;;;26.40;99.90;;;;;;5228952;28;20038;-60
2022/07/15 13:26:44;;;;;;;3.53;1.30;;;26.20;99.90;;;;;;5259606;28;20231;-60
2022/07/15 13:29:15;;;;;;;1.48;1.13;;;26.60;99.90;;;;;;5260316;28;20268;-61
2022/07/15 13:31:46;;;;;;;1.13;1.02;;;26.30;99.90;;;;;;5225829;28;20043;-60
2022/07/15 13:34:18;;;;;;;2.75;1.13;;;26.40;99.90;;;;;;5241230;28;20028;-61
2022/07/15 13:36:54;;;;;;;7.70;2.58;;;26.60;99.90;;;;;;5257798;28;20297;-61
2022/07/15 13:39:34;;;;;;;0.90;0.80;;;27.10;99.90;;;;;;5226119;28;20039;-60
2022/07/15 13:42:08;;;;;;;1.17;0.95;;;28.20;99.90;;;;;;5240096;28;20205;-60
2022/07/15 13:44:42;;;;;;;1.20;1.10;;;28.30;99.90;;;;;;5258992;28;20331;-61
2022/07/15 13:47:15;;;;;;;1.17;0.93;;;29.00;99.90;;;;;;5276884;28;20335;-60
2022/07/15 13:52:48;;;;;;;1.15;1.05;;;28.40;99.90;;;;;;5257738;28;20209;-61
2022/07/15 13:55:21;;;;;;;1.10;1.00;;;28.00;99.90;;;;;;5238561;28;20039;-61
2022/07/15 13:57:55;;;;;;;2.05;1.00;;;27.50;99.90;;;;;;5229392;28;20032;-61
2022/07/15 14:00:26;;;;;;;;;;;27.10;99.90;;;;;;5241615;28;20036;-60
2022/07/15 14:03:00;;;;;;;1.38;0.80;;;27.20;99.90;;;;;;5241078;28;20204;-61
2022/07/15 14:05:34;;;;;;;1.80;1.60;;;28.60;99.90;;;;;;5219734;28;20045;-62
2022/07/15 14:08:06;;;;;;;1.30;1.20;;;30.40;99.90;;;;;;5236924;28;20328;-61
2022/07/15 14:10:40;;;;;;;1.83;0.90;;;30.10;99.90;;;;;;5239943;28;20059;-62
2022/07/15 14:13:12;;;;;;;1.67;1.00;;;30.00;99.90;;;;;;5260117;28;20028;-61